sensor_id;sensor_type;location;lat;lon;timestamp;temperature;humidity
39957;DHT22;48483;44.640;7.494;2023-02-11T00:00:51;1.50;96.20
39957;DHT22;48483;44.640;7.494;2023-02-11T00:03:17;1.50;96.10
39957;DHT22;48483;44.640;7.494;2023-02-11T00:05:45;1.50;96.30
39957;DHT22;48483;44.640;7.494;2023-02-11T00:08:12;1.40;96.40
39957;DHT22;48483;44.640;7.494;2023-02-11T00:10:42;1.40;96.60
39957;DHT22;48483;44.640;7.494;2023-02-11T00:13:11;1.40;96.90
39957;DHT22;48483;44.640;7.494;2023-02-11T00:15:38;1.40;97.10
39957;DHT22;48483;44.640;7.494;2023-02-11T00:18:04;1.40;97.10
39957;DHT22;48483;44.640;7.494;2023-02-11T00:20:31;1.40;97.00
39957;DHT22;48483;44.640;7.494;2023-02-11T00:22:59;1.40;97.20
39957;DHT22;48483;44.640;7.494;2023-02-11T00:25:25;1.40;97.20
39957;DHT22;48483;44.640;7.494;2023-02-11T00:27:52;1.40;97.20
39957;DHT22;48483;44.640;7.494;2023-02-11T00:30:19;1.30;97.30
39957;DHT22;48483;44.640;7.494;2023-02-11T00:32:45;1.40;97.40
39957;DHT22;48483;44.640;7.494;2023-02-11T00:35:12;1.30;97.20
39957;DHT22;48483;44.640;7.494;2023-02-11T00:37:39;1.40;97.00
39957;DHT22;48483;44.640;7.494;2023-02-11T00:40:08;1.40;97.00
39957;DHT22;48483;44.640;7.494;2023-02-11T00:42:35;1.40;97.00
39957;DHT22;48483;44.640;7.494;2023-02-11T00:45:03;1.40;96.90
39957;DHT22;48483;44.640;7.494;2023-02-11T00:47:30;1.30;96.90
39957;DHT22;48483;44.640;7.494;2023-02-11T00:49:56;1.30;97.00
39957;DHT22;48483;44.640;7.494;2023-02-11T00:52:23;1.30;97.00
39957;DHT22;48483;44.640;7.494;2023-02-11T00:54:49;1.30;97.10
39957;DHT22;48483;44.640;7.494;2023-02-11T00:57:17;1.30;97.10
39957;DHT22;48483;44.640;7.494;2023-02-11T00:59:43;1.20;97.00
39957;DHT22;48483;44.640;7.494;2023-02-11T01:02:10;1.20;97.10
39957;DHT22;48483;44.640;7.494;2023-02-11T01:04:37;1.20;97.30
39957;DHT22;48483;44.640;7.494;2023-02-11T01:07:03;1.10;97.50
39957;DHT22;48483;44.640;7.494;2023-02-11T01:09:30;1.10;97.60
39957;DHT22;48483;44.640;7.494;2023-02-11T01:11:56;1.10;97.80
39957;DHT22;48483;44.640;7.494;2023-02-11T01:14:24;1.10;97.60
39957;DHT22;48483;44.640;7.494;2023-02-11T01:16:51;1.10;97.70
39957;DHT22;48483;44.640;7.494;2023-02-11T01:19:17;1.10;97.90
39957;DHT22;48483;44.640;7.494;2023-02-11T01:21:45;1.10;97.90
39957;DHT22;48483;44.640;7.494;2023-02-11T01:24:12;1.10;98.30
39957;DHT22;48483;44.640;7.494;2023-02-11T01:26:38;1.10;98.20
39957;DHT22;48483;44.640;7.494;2023-02-11T01:29:05;1.10;98.30
39957;DHT22;48483;44.640;7.494;2023-02-11T01:31:33;1.10;98.30
39957;DHT22;48483;44.640;7.494;2023-02-11T01:34:00;1.10;98.30
39957;DHT22;48483;44.640;7.494;2023-02-11T01:36:26;1.10;98.50
39957;DHT22;48483;44.640;7.494;2023-02-11T01:38:53;1.10;98.60
39957;DHT22;48483;44.640;7.494;2023-02-11T01:41:20;1.00;98.90
39957;DHT22;48483;44.640;7.494;2023-02-11T01:43:48;1.10;98.90
39957;DHT22;48483;44.640;7.494;2023-02-11T01:46:34;1.00;98.70
39957;DHT22;48483;44.640;7.494;2023-02-11T01:49:04;1.00;98.60
39957;DHT22;48483;44.640;7.494;2023-02-11T01:51:35;1.00;98.90
39957;DHT22;48483;44.640;7.494;2023-02-11T01:54:05;1.00;99.10
39957;DHT22;48483;44.640;7.494;2023-02-11T01:56:53;0.90;98.80
39957;DHT22;48483;44.640;7.494;2023-02-11T01:59:42;0.90;98.80
39957;DHT22;48483;44.640;7.494;2023-02-11T02:02:14;0.90;99.00
39957;DHT22;48483;44.640;7.494;2023-02-11T02:04:47;0.90;98.80
39957;DHT22;48483;44.640;7.494;2023-02-11T02:07:21;0.90;98.70
39957;DHT22;48483;44.640;7.494;2023-02-11T02:09:54;0.90;98.50
39957;DHT22;48483;44.640;7.494;2023-02-11T02:12:22;0.90;98.50
39957;DHT22;48483;44.640;7.494;2023-02-11T02:14:49;1.00;98.40
39957;DHT22;48483;44.640;7.494;2023-02-11T02:17:25;0.90;98.70
39957;DHT22;48483;44.640;7.494;2023-02-11T02:20:17;0.90;98.70
39957;DHT22;48483;44.640;7.494;2023-02-11T02:29:21;0.70;98.60
39957;DHT22;48483;44.640;7.494;2023-02-11T02:34:59;0.70;98.70
39957;DHT22;48483;44.640;7.494;2023-02-11T02:37:32;0.70;98.80
39957;DHT22;48483;44.640;7.494;2023-02-11T02:40:04;0.70;98.80
39957;DHT22;48483;44.640;7.494;2023-02-11T02:42:32;0.70;98.80
39957;DHT22;48483;44.640;7.494;2023-02-11T02:44:59;0.70;98.90
39957;DHT22;48483;44.640;7.494;2023-02-11T02:47:44;0.70;99.20
39957;DHT22;48483;44.640;7.494;2023-02-11T02:50:14;0.70;99.50
39957;DHT22;48483;44.640;7.494;2023-02-11T02:52:46;0.60;99.50
39957;DHT22;48483;44.640;7.494;2023-02-11T02:55:33;0.60;99.30
39957;DHT22;48483;44.640;7.494;2023-02-11T02:58:25;0.70;99.20
39957;DHT22;48483;44.640;7.494;2023-02-11T03:00:59;0.60;99.30
39957;DHT22;48483;44.640;7.494;2023-02-11T03:03:37;0.60;99.40
39957;DHT22;48483;44.640;7.494;2023-02-11T03:06:12;0.60;99.30
39957;DHT22;48483;44.640;7.494;2023-02-11T03:08:44;0.50;99.30
39957;DHT22;48483;44.640;7.494;2023-02-11T03:11:15;0.50;99.30
39957;DHT22;48483;44.640;7.494;2023-02-11T03:13:43;0.50;99.50
39957;DHT22;48483;44.640;7.494;2023-02-11T03:16:13;0.50;99.50
39957;DHT22;48483;44.640;7.494;2023-02-11T03:18:43;0.50;99.40
39957;DHT22;48483;44.640;7.494;2023-02-11T03:21:14;0.60;99.30
39957;DHT22;48483;44.640;7.494;2023-02-11T03:23:45;0.60;99.20
39957;DHT22;48483;44.640;7.494;2023-02-11T03:26:16;0.70;99.50
39957;DHT22;48483;44.640;7.494;2023-02-11T03:28:50;0.70;99.20
39957;DHT22;48483;44.640;7.494;2023-02-11T03:31:22;0.70;98.90
39957;DHT22;48483;44.640;7.494;2023-02-11T03:33:56;0.80;98.80
39957;DHT22;48483;44.640;7.494;2023-02-11T03:36:32;0.80;98.90
39957;DHT22;48483;44.640;7.494;2023-02-11T03:39:01;0.90;98.40
39957;DHT22;48483;44.640;7.494;2023-02-11T03:41:30;0.90;98.30
39957;DHT22;48483;44.640;7.494;2023-02-11T03:43:57;0.90;98.40
39957;DHT22;48483;44.640;7.494;2023-02-11T03:46:30;1.00;98.00
39957;DHT22;48483;44.640;7.494;2023-02-11T03:49:01;1.00;97.60
39957;DHT22;48483;44.640;7.494;2023-02-11T03:51:31;1.00;97.90
39957;DHT22;48483;44.640;7.494;2023-02-11T03:54:01;1.00;97.90
39957;DHT22;48483;44.640;7.494;2023-02-11T03:56:32;1.00;98.00
39957;DHT22;48483;44.640;7.494;2023-02-11T03:59:00;1.00;98.10
39957;DHT22;48483;44.640;7.494;2023-02-11T04:01:27;1.00;98.10
39957;DHT22;48483;44.640;7.494;2023-02-11T04:03:54;0.90;98.20
39957;DHT22;48483;44.640;7.494;2023-02-11T04:06:20;0.90;98.20
39957;DHT22;48483;44.640;7.494;2023-02-11T04:08:48;0.80;98.10
39957;DHT22;48483;44.640;7.494;2023-02-11T04:11:15;0.70;98.10
39957;DHT22;48483;44.640;7.494;2023-02-11T04:13:41;0.70;98.00
39957;DHT22;48483;44.640;7.494;2023-02-11T04:16:08;0.70;98.00
39957;DHT22;48483;44.640;7.494;2023-02-11T04:18:34;0.70;98.20
39957;DHT22;48483;44.640;7.494;2023-02-11T04:21:01;0.70;98.10
39957;DHT22;48483;44.640;7.494;2023-02-11T04:23:27;0.70;97.80
39957;DHT22;48483;44.640;7.494;2023-02-11T04:25:55;0.70;98.10
39957;DHT22;48483;44.640;7.494;2023-02-11T04:28:22;0.60;98.00
39957;DHT22;48483;44.640;7.494;2023-02-11T04:30:49;0.60;98.20
39957;DHT22;48483;44.640;7.494;2023-02-11T04:33:16;0.60;98.40
39957;DHT22;48483;44.640;7.494;2023-02-11T04:35:42;0.60;98.70
39957;DHT22;48483;44.640;7.494;2023-02-11T04:38:09;0.60;98.70
39957;DHT22;48483;44.640;7.494;2023-02-11T04:40:36;0.60;98.70
39957;DHT22;48483;44.640;7.494;2023-02-11T04:43:03;0.60;98.70
39957;DHT22;48483;44.640;7.494;2023-02-11T04:45:30;0.60;98.70
39957;DHT22;48483;44.640;7.494;2023-02-11T04:47:56;0.70;98.60
39957;DHT22;48483;44.640;7.494;2023-02-11T04:50:23;0.70;98.10
39957;DHT22;48483;44.640;7.494;2023-02-11T04:52:50;0.70;97.70
39957;DHT22;48483;44.640;7.494;2023-02-11T04:55:16;0.80;97.60
39957;DHT22;48483;44.640;7.494;2023-02-11T04:57:43;0.80;97.80
39957;DHT22;48483;44.640;7.494;2023-02-11T05:00:12;0.80;98.20
39957;DHT22;48483;44.640;7.494;2023-02-11T05:02:39;0.80;97.90
39957;DHT22;48483;44.640;7.494;2023-02-11T05:05:06;0.70;97.90
39957;DHT22;48483;44.640;7.494;2023-02-11T05:07:33;0.70;98.40
39957;DHT22;48483;44.640;7.494;2023-02-11T05:10:00;0.70;98.10
39957;DHT22;48483;44.640;7.494;2023-02-11T05:12:26;0.70;97.90
39957;DHT22;48483;44.640;7.494;2023-02-11T05:14:53;0.70;98.10
39957;DHT22;48483;44.640;7.494;2023-02-11T05:17:21;0.60;97.90
39957;DHT22;48483;44.640;7.494;2023-02-11T05:19:47;0.50;98.20
39957;DHT22;48483;44.640;7.494;2023-02-11T05:22:14;0.50;98.40
39957;DHT22;48483;44.640;7.494;2023-02-11T05:24:40;0.50;98.40
39957;DHT22;48483;44.640;7.494;2023-02-11T05:27:07;0.40;98.40
39957;DHT22;48483;44.640;7.494;2023-02-11T05:29:34;0.40;98.50
39957;DHT22;48483;44.640;7.494;2023-02-11T05:32:01;0.40;98.60
39957;DHT22;48483;44.640;7.494;2023-02-11T05:34:28;0.40;98.60
39957;DHT22;48483;44.640;7.494;2023-02-11T05:36:55;0.50;98.70
39957;DHT22;48483;44.640;7.494;2023-02-11T05:39:22;0.50;98.80
39957;DHT22;48483;44.640;7.494;2023-02-11T05:41:48;0.50;98.70
39957;DHT22;48483;44.640;7.494;2023-02-11T05:44:15;0.50;98.20
39957;DHT22;48483;44.640;7.494;2023-02-11T05:46:41;0.50;98.20
39957;DHT22;48483;44.640;7.494;2023-02-11T05:49:08;0.50;97.90
39957;DHT22;48483;44.640;7.494;2023-02-11T05:51:36;0.50;98.10
39957;DHT22;48483;44.640;7.494;2023-02-11T05:54:02;0.50;98.40
39957;DHT22;48483;44.640;7.494;2023-02-11T05:56:29;0.50;98.70
39957;DHT22;48483;44.640;7.494;2023-02-11T05:58:57;0.40;98.80
39957;DHT22;48483;44.640;7.494;2023-02-11T06:01:24;0.40;98.70
39957;DHT22;48483;44.640;7.494;2023-02-11T06:03:50;0.40;98.90
39957;DHT22;48483;44.640;7.494;2023-02-11T06:06:17;0.40;98.90
39957;DHT22;48483;44.640;7.494;2023-02-11T06:08:45;0.30;98.90
39957;DHT22;48483;44.640;7.494;2023-02-11T06:11:13;0.30;99.00
39957;DHT22;48483;44.640;7.494;2023-02-11T06:13:40;0.30;98.90
39957;DHT22;48483;44.640;7.494;2023-02-11T06:16:06;0.30;98.90
39957;DHT22;48483;44.640;7.494;2023-02-11T06:18:33;0.30;99.00
39957;DHT22;48483;44.640;7.494;2023-02-11T06:21:00;0.30;99.00
39957;DHT22;48483;44.640;7.494;2023-02-11T06:23:26;0.30;99.00
39957;DHT22;48483;44.640;7.494;2023-02-11T06:25:54;0.30;99.20
39957;DHT22;48483;44.640;7.494;2023-02-11T06:28:20;0.30;99.20
39957;DHT22;48483;44.640;7.494;2023-02-11T06:30:47;0.30;99.30
39957;DHT22;48483;44.640;7.494;2023-02-11T06:33:14;0.30;99.20
39957;DHT22;48483;44.640;7.494;2023-02-11T06:35:41;0.30;99.00
39957;DHT22;48483;44.640;7.494;2023-02-11T06:38:07;0.20;99.00
39957;DHT22;48483;44.640;7.494;2023-02-11T06:40:34;0.30;98.80
39957;DHT22;48483;44.640;7.494;2023-02-11T06:43:02;0.30;98.90
39957;DHT22;48483;44.640;7.494;2023-02-11T06:45:28;0.20;99.10
39957;DHT22;48483;44.640;7.494;2023-02-11T06:47:55;0.30;99.20
39957;DHT22;48483;44.640;7.494;2023-02-11T06:50:21;0.30;99.00
39957;DHT22;48483;44.640;7.494;2023-02-11T06:52:48;0.30;99.00
39957;DHT22;48483;44.640;7.494;2023-02-11T06:55:15;0.30;98.90
39957;DHT22;48483;44.640;7.494;2023-02-11T06:57:42;0.30;98.90
39957;DHT22;48483;44.640;7.494;2023-02-11T07:00:11;0.40;99.00
39957;DHT22;48483;44.640;7.494;2023-02-11T07:02:38;0.40;99.10
39957;DHT22;48483;44.640;7.494;2023-02-11T07:05:05;0.40;99.20
39957;DHT22;48483;44.640;7.494;2023-02-11T07:07:32;0.50;99.50
39957;DHT22;48483;44.640;7.494;2023-02-11T07:09:58;0.50;99.70
39957;DHT22;48483;44.640;7.494;2023-02-11T07:12:25;0.60;99.60
39957;DHT22;48483;44.640;7.494;2023-02-11T07:14:51;0.70;99.60
39957;DHT22;48483;44.640;7.494;2023-02-11T07:17:19;0.80;99.50
39957;DHT22;48483;44.640;7.494;2023-02-11T07:19:46;0.80;99.60
39957;DHT22;48483;44.640;7.494;2023-02-11T07:22:12;0.90;99.70
39957;DHT22;48483;44.640;7.494;2023-02-11T07:24:39;1.00;99.60
39957;DHT22;48483;44.640;7.494;2023-02-11T07:27:06;1.10;99.40
39957;DHT22;48483;44.640;7.494;2023-02-11T07:29:32;1.30;99.40
39957;DHT22;48483;44.640;7.494;2023-02-11T07:31:59;1.50;99.60
39957;DHT22;48483;44.640;7.494;2023-02-11T07:34:27;1.60;98.70
39957;DHT22;48483;44.640;7.494;2023-02-11T07:36:53;1.80;98.70
39957;DHT22;48483;44.640;7.494;2023-02-11T07:39:22;1.80;99.00
39957;DHT22;48483;44.640;7.494;2023-02-11T07:41:54;1.90;99.00
39957;DHT22;48483;44.640;7.494;2023-02-11T07:44:21;1.90;99.20
39957;DHT22;48483;44.640;7.494;2023-02-11T07:46:48;1.90;98.90
39957;DHT22;48483;44.640;7.494;2023-02-11T07:49:14;2.00;98.70
39957;DHT22;48483;44.640;7.494;2023-02-11T07:51:43;2.10;98.40
39957;DHT22;48483;44.640;7.494;2023-02-11T07:54:10;2.20;98.40
39957;DHT22;48483;44.640;7.494;2023-02-11T07:56:37;2.30;98.30
39957;DHT22;48483;44.640;7.494;2023-02-11T07:59:04;2.40;97.60
39957;DHT22;48483;44.640;7.494;2023-02-11T08:01:30;2.50;95.80
39957;DHT22;48483;44.640;7.494;2023-02-11T08:03:58;2.50;95.80
39957;DHT22;48483;44.640;7.494;2023-02-11T08:06:27;2.60;96.20
39957;DHT22;48483;44.640;7.494;2023-02-11T08:08:55;2.60;96.20
39957;DHT22;48483;44.640;7.494;2023-02-11T08:11:23;2.70;95.60
39957;DHT22;48483;44.640;7.494;2023-02-11T08:13:50;2.80;95.20
39957;DHT22;48483;44.640;7.494;2023-02-11T08:16:20;2.90;94.30
39957;DHT22;48483;44.640;7.494;2023-02-11T08:18:47;3.00;93.60
39957;DHT22;48483;44.640;7.494;2023-02-11T08:21:14;3.10;93.10
39957;DHT22;48483;44.640;7.494;2023-02-11T08:23:42;3.10;92.80
39957;DHT22;48483;44.640;7.494;2023-02-11T08:26:12;3.20;92.60
39957;DHT22;48483;44.640;7.494;2023-02-11T08:28:40;3.20;92.00
39957;DHT22;48483;44.640;7.494;2023-02-11T08:31:08;3.20;91.80
39957;DHT22;48483;44.640;7.494;2023-02-11T08:33:35;3.30;92.00
39957;DHT22;48483;44.640;7.494;2023-02-11T08:36:07;3.40;92.00
39957;DHT22;48483;44.640;7.494;2023-02-11T08:38:34;3.50;91.90
39957;DHT22;48483;44.640;7.494;2023-02-11T08:41:01;3.60;92.10
39957;DHT22;48483;44.640;7.494;2023-02-11T08:43:29;3.60;92.40
39957;DHT22;48483;44.640;7.494;2023-02-11T08:45:56;3.70;92.30
39957;DHT22;48483;44.640;7.494;2023-02-11T08:48:22;3.60;92.30
39957;DHT22;48483;44.640;7.494;2023-02-11T08:50:49;3.60;92.50
39957;DHT22;48483;44.640;7.494;2023-02-11T08:53:15;3.50;92.70
39957;DHT22;48483;44.640;7.494;2023-02-11T08:55:47;3.60;92.40
39957;DHT22;48483;44.640;7.494;2023-02-11T08:58:14;3.50;91.70
39957;DHT22;48483;44.640;7.494;2023-02-11T09:00:42;3.40;91.70
39957;DHT22;48483;44.640;7.494;2023-02-11T09:03:10;3.50;91.50
39957;DHT22;48483;44.640;7.494;2023-02-11T09:05:40;3.40;91.40
39957;DHT22;48483;44.640;7.494;2023-02-11T09:08:07;3.50;91.20
39957;DHT22;48483;44.640;7.494;2023-02-11T09:10:33;3.60;91.20
39957;DHT22;48483;44.640;7.494;2023-02-11T09:13:00;3.70;91.00
39957;DHT22;48483;44.640;7.494;2023-02-11T09:15:27;3.80;91.00
39957;DHT22;48483;44.640;7.494;2023-02-11T09:17:55;3.90;91.10
39957;DHT22;48483;44.640;7.494;2023-02-11T09:20:21;4.00;91.20
39957;DHT22;48483;44.640;7.494;2023-02-11T09:22:48;4.10;91.10
39957;DHT22;48483;44.640;7.494;2023-02-11T09:25:14;4.20;90.60
39957;DHT22;48483;44.640;7.494;2023-02-11T09:27:41;4.10;90.20
39957;DHT22;48483;44.640;7.494;2023-02-11T09:30:09;4.10;90.50
39957;DHT22;48483;44.640;7.494;2023-02-11T09:32:35;4.20;90.30
39957;DHT22;48483;44.640;7.494;2023-02-11T09:35:04;4.30;90.40
39957;DHT22;48483;44.640;7.494;2023-02-11T09:37:30;4.40;90.70
39957;DHT22;48483;44.640;7.494;2023-02-11T09:39:57;4.50;90.80
39957;DHT22;48483;44.640;7.494;2023-02-11T09:42:38;4.50;90.70
39957;DHT22;48483;44.640;7.494;2023-02-11T09:45:11;4.60;90.50
39957;DHT22;48483;44.640;7.494;2023-02-11T09:47:46;4.60;90.60
39957;DHT22;48483;44.640;7.494;2023-02-11T09:50:18;4.60;90.70
39957;DHT22;48483;44.640;7.494;2023-02-11T09:52:51;4.60;90.50
39957;DHT22;48483;44.640;7.494;2023-02-11T09:55:24;4.70;90.10
39957;DHT22;48483;44.640;7.494;2023-02-11T09:57:51;4.80;90.00
39957;DHT22;48483;44.640;7.494;2023-02-11T10:00:21;4.80;89.60
39957;DHT22;48483;44.640;7.494;2023-02-11T10:03:20;4.90;89.70
39957;DHT22;48483;44.640;7.494;2023-02-11T10:06:09;4.90;88.90
39957;DHT22;48483;44.640;7.494;2023-02-11T10:08:43;4.90;88.50
39957;DHT22;48483;44.640;7.494;2023-02-11T10:11:22;4.90;89.20
39957;DHT22;48483;44.640;7.494;2023-02-11T10:13:57;4.90;90.00
39957;DHT22;48483;44.640;7.494;2023-02-11T10:16:38;5.00;90.00
39957;DHT22;48483;44.640;7.494;2023-02-11T10:19:15;4.90;89.80
39957;DHT22;48483;44.640;7.494;2023-02-11T10:21:53;5.00;90.10
39957;DHT22;48483;44.640;7.494;2023-02-11T10:24:24;5.10;90.00
39957;DHT22;48483;44.640;7.494;2023-02-11T10:26:51;5.00;89.30
39957;DHT22;48483;44.640;7.494;2023-02-11T10:29:29;5.10;88.00
39957;DHT22;48483;44.640;7.494;2023-02-11T10:31:59;5.20;87.30
39957;DHT22;48483;44.640;7.494;2023-02-11T10:34:27;5.30;86.70
39957;DHT22;48483;44.640;7.494;2023-02-11T10:36:55;5.40;86.00
39957;DHT22;48483;44.640;7.494;2023-02-11T10:39:24;5.50;85.20
39957;DHT22;48483;44.640;7.494;2023-02-11T10:41:53;5.60;84.00
39957;DHT22;48483;44.640;7.494;2023-02-11T10:44:24;5.70;83.90
39957;DHT22;48483;44.640;7.494;2023-02-11T10:46:52;5.80;84.00
39957;DHT22;48483;44.640;7.494;2023-02-11T10:49:34;5.80;84.00
39957;DHT22;48483;44.640;7.494;2023-02-11T10:52:18;5.80;84.50
39957;DHT22;48483;44.640;7.494;2023-02-11T10:55:00;5.90;84.50
39957;DHT22;48483;44.640;7.494;2023-02-11T10:57:32;5.90;85.40
39957;DHT22;48483;44.640;7.494;2023-02-11T11:00:04;6.00;85.90
39957;DHT22;48483;44.640;7.494;2023-02-11T11:02:33;6.00;85.70
39957;DHT22;48483;44.640;7.494;2023-02-11T11:05:03;6.10;85.60
39957;DHT22;48483;44.640;7.494;2023-02-11T11:07:33;6.20;85.50
39957;DHT22;48483;44.640;7.494;2023-02-11T11:10:03;6.10;84.50
39957;DHT22;48483;44.640;7.494;2023-02-11T11:12:33;6.10;84.30
39957;DHT22;48483;44.640;7.494;2023-02-11T11:15:16;6.20;83.40
39957;DHT22;48483;44.640;7.494;2023-02-11T11:17:44;6.20;82.00
39957;DHT22;48483;44.640;7.494;2023-02-11T11:20:20;6.30;82.20
39957;DHT22;48483;44.640;7.494;2023-02-11T11:22:50;6.30;82.20
39957;DHT22;48483;44.640;7.494;2023-02-11T11:25:25;6.40;81.40
39957;DHT22;48483;44.640;7.494;2023-02-11T11:27:55;6.40;79.90
39957;DHT22;48483;44.640;7.494;2023-02-11T11:30:26;6.50;79.90
39957;DHT22;48483;44.640;7.494;2023-02-11T11:32:53;6.50;79.50
39957;DHT22;48483;44.640;7.494;2023-02-11T11:35:23;6.50;79.90
39957;DHT22;48483;44.640;7.494;2023-02-11T11:37:57;6.60;80.20
39957;DHT22;48483;44.640;7.494;2023-02-11T11:40:27;6.70;79.50
39957;DHT22;48483;44.640;7.494;2023-02-11T11:43:16;6.70;79.20
39957;DHT22;48483;44.640;7.494;2023-02-11T11:45:54;6.80;79.40
39957;DHT22;48483;44.640;7.494;2023-02-11T11:48:24;6.80;78.20
39957;DHT22;48483;44.640;7.494;2023-02-11T11:50:52;6.90;77.40
39957;DHT22;48483;44.640;7.494;2023-02-11T11:53:24;6.90;76.00
39957;DHT22;48483;44.640;7.494;2023-02-11T11:55:58;6.90;76.10
39957;DHT22;48483;44.640;7.494;2023-02-11T11:58:27;6.90;76.10
39957;DHT22;48483;44.640;7.494;2023-02-11T12:01:02;7.00;76.10
39957;DHT22;48483;44.640;7.494;2023-02-11T12:03:56;7.10;75.70
39957;DHT22;48483;44.640;7.494;2023-02-11T12:06:38;7.10;74.40
39957;DHT22;48483;44.640;7.494;2023-02-11T12:09:17;7.20;74.70
39957;DHT22;48483;44.640;7.494;2023-02-11T12:12:18;7.20;75.40
39957;DHT22;48483;44.640;7.494;2023-02-11T12:14:54;7.20;76.00
39957;DHT22;48483;44.640;7.494;2023-02-11T12:17:38;7.30;76.70
39957;DHT22;48483;44.640;7.494;2023-02-11T12:20:19;7.40;76.40
39957;DHT22;48483;44.640;7.494;2023-02-11T12:25:50;7.50;75.20
39957;DHT22;48483;44.640;7.494;2023-02-11T12:28:26;7.50;74.90
39957;DHT22;48483;44.640;7.494;2023-02-11T12:31:18;7.50;74.20
39957;DHT22;48483;44.640;7.494;2023-02-11T12:34:03;7.50;73.60
39957;DHT22;48483;44.640;7.494;2023-02-11T12:36:43;7.60;73.70
39957;DHT22;48483;44.640;7.494;2023-02-11T12:39:19;7.60;72.90
39957;DHT22;48483;44.640;7.494;2023-02-11T12:45:16;7.70;72.30
39957;DHT22;48483;44.640;7.494;2023-02-11T12:47:52;7.70;71.40
39957;DHT22;48483;44.640;7.494;2023-02-11T12:50:26;7.80;71.30
39957;DHT22;48483;44.640;7.494;2023-02-11T12:53:07;7.80;69.30
39957;DHT22;48483;44.640;7.494;2023-02-11T12:55:38;7.80;68.10
39957;DHT22;48483;44.640;7.494;2023-02-11T12:58:12;7.90;67.80
39957;DHT22;48483;44.640;7.494;2023-02-11T13:00:45;7.90;66.10
39957;DHT22;48483;44.640;7.494;2023-02-11T13:03:19;8.00;64.70
39957;DHT22;48483;44.640;7.494;2023-02-11T13:05:50;8.00;63.70
39957;DHT22;48483;44.640;7.494;2023-02-11T13:08:21;8.00;62.40
39957;DHT22;48483;44.640;7.494;2023-02-11T13:10:53;8.00;61.30
39957;DHT22;48483;44.640;7.494;2023-02-11T13:13:24;8.10;61.40
39957;DHT22;48483;44.640;7.494;2023-02-11T13:15:55;8.10;60.90
39957;DHT22;48483;44.640;7.494;2023-02-11T13:18:38;8.10;61.00
39957;DHT22;48483;44.640;7.494;2023-02-11T13:21:30;8.20;61.10
39957;DHT22;48483;44.640;7.494;2023-02-11T13:24:11;8.20;60.30
39957;DHT22;48483;44.640;7.494;2023-02-11T13:26:44;8.30;59.80
39957;DHT22;48483;44.640;7.494;2023-02-11T13:29:23;8.40;58.80
39957;DHT22;48483;44.640;7.494;2023-02-11T13:31:53;8.40;58.90
39957;DHT22;48483;44.640;7.494;2023-02-11T13:34:26;8.40;57.80
39957;DHT22;48483;44.640;7.494;2023-02-11T13:37:19;8.40;57.70
39957;DHT22;48483;44.640;7.494;2023-02-11T13:39:55;8.50;58.00
39957;DHT22;48483;44.640;7.494;2023-02-11T13:42:23;8.50;58.10
39957;DHT22;48483;44.640;7.494;2023-02-11T13:44:51;8.60;57.10
39957;DHT22;48483;44.640;7.494;2023-02-11T13:47:25;8.50;57.30
39957;DHT22;48483;44.640;7.494;2023-02-11T13:49:55;8.60;57.60
39957;DHT22;48483;44.640;7.494;2023-02-11T13:52:24;8.60;57.20
39957;DHT22;48483;44.640;7.494;2023-02-11T13:54:54;8.60;56.70
39957;DHT22;48483;44.640;7.494;2023-02-11T13:57:32;8.70;56.50
39957;DHT22;48483;44.640;7.494;2023-02-11T14:00:08;8.70;55.90
39957;DHT22;48483;44.640;7.494;2023-02-11T14:03:19;8.70;55.90
39957;DHT22;48483;44.640;7.494;2023-02-11T14:06:11;8.80;56.20
39957;DHT22;48483;44.640;7.494;2023-02-11T14:11:48;8.90;56.20
39957;DHT22;48483;44.640;7.494;2023-02-11T14:14:18;8.90;55.50
39957;DHT22;48483;44.640;7.494;2023-02-11T14:19:48;9.00;55.90
39957;DHT22;48483;44.640;7.494;2023-02-11T14:22:18;9.00;56.40
39957;DHT22;48483;44.640;7.494;2023-02-11T14:24:52;9.00;57.00
39957;DHT22;48483;44.640;7.494;2023-02-11T14:27:28;9.00;57.90
39957;DHT22;48483;44.640;7.494;2023-02-11T14:30:24;9.10;57.30
39957;DHT22;48483;44.640;7.494;2023-02-11T14:33:08;9.10;56.60
39957;DHT22;48483;44.640;7.494;2023-02-11T14:35:46;9.10;56.90
39957;DHT22;48483;44.640;7.494;2023-02-11T14:38:23;9.10;56.60
39957;DHT22;48483;44.640;7.494;2023-02-11T14:40:59;9.10;57.00
39957;DHT22;48483;44.640;7.494;2023-02-11T14:43:37;9.20;56.70
39957;DHT22;48483;44.640;7.494;2023-02-11T14:46:05;9.20;56.20
39957;DHT22;48483;44.640;7.494;2023-02-11T14:48:33;9.20;56.60
39957;DHT22;48483;44.640;7.494;2023-02-11T14:51:06;9.20;56.50
39957;DHT22;48483;44.640;7.494;2023-02-11T14:53:35;9.20;56.30
39957;DHT22;48483;44.640;7.494;2023-02-11T14:56:16;9.20;55.50
39957;DHT22;48483;44.640;7.494;2023-02-11T14:58:46;9.20;55.70
39957;DHT22;48483;44.640;7.494;2023-02-11T15:01:25;9.20;55.90
39957;DHT22;48483;44.640;7.494;2023-02-11T15:03:53;9.30;55.50
39957;DHT22;48483;44.640;7.494;2023-02-11T15:06:25;9.30;55.20
39957;DHT22;48483;44.640;7.494;2023-02-11T15:08:55;9.30;55.20
39957;DHT22;48483;44.640;7.494;2023-02-11T15:11:24;9.30;55.50
39957;DHT22;48483;44.640;7.494;2023-02-11T15:13:51;9.30;55.90
39957;DHT22;48483;44.640;7.494;2023-02-11T15:16:21;9.30;56.60
39957;DHT22;48483;44.640;7.494;2023-02-11T15:18:50;9.30;56.60
39957;DHT22;48483;44.640;7.494;2023-02-11T15:21:24;9.30;56.90
39957;DHT22;48483;44.640;7.494;2023-02-11T15:23:57;9.30;57.00
39957;DHT22;48483;44.640;7.494;2023-02-11T15:26:24;9.30;56.80
39957;DHT22;48483;44.640;7.494;2023-02-11T15:28:52;9.30;56.90
39957;DHT22;48483;44.640;7.494;2023-02-11T15:31:20;9.30;57.50
39957;DHT22;48483;44.640;7.494;2023-02-11T15:33:48;9.30;57.70
39957;DHT22;48483;44.640;7.494;2023-02-11T15:36:17;9.40;58.00
39957;DHT22;48483;44.640;7.494;2023-02-11T15:38:57;9.40;58.30
39957;DHT22;48483;44.640;7.494;2023-02-11T15:41:40;9.40;58.80
39957;DHT22;48483;44.640;7.494;2023-02-11T15:44:26;9.40;58.40
39957;DHT22;48483;44.640;7.494;2023-02-11T15:46:53;9.40;58.70
39957;DHT22;48483;44.640;7.494;2023-02-11T15:49:20;9.40;58.80
39957;DHT22;48483;44.640;7.494;2023-02-11T15:51:48;9.30;59.10
39957;DHT22;48483;44.640;7.494;2023-02-11T15:54:19;9.30;59.20
39957;DHT22;48483;44.640;7.494;2023-02-11T15:56:48;9.30;59.50
39957;DHT22;48483;44.640;7.494;2023-02-11T15:59:18;9.20;59.50
39957;DHT22;48483;44.640;7.494;2023-02-11T16:01:47;9.10;59.50
39957;DHT22;48483;44.640;7.494;2023-02-11T16:04:18;9.10;59.60
39957;DHT22;48483;44.640;7.494;2023-02-11T16:06:46;9.00;59.50
39957;DHT22;48483;44.640;7.494;2023-02-11T16:09:35;8.90;59.20
39957;DHT22;48483;44.640;7.494;2023-02-11T16:12:04;8.90;60.00
39957;DHT22;48483;44.640;7.494;2023-02-11T16:14:34;8.80;60.30
39957;DHT22;48483;44.640;7.494;2023-02-11T16:17:09;8.80;60.80
39957;DHT22;48483;44.640;7.494;2023-02-11T16:19:43;8.70;61.40
39957;DHT22;48483;44.640;7.494;2023-02-11T16:22:15;8.70;62.00
39957;DHT22;48483;44.640;7.494;2023-02-11T16:24:46;8.60;62.80
39957;DHT22;48483;44.640;7.494;2023-02-11T16:27:20;8.50;63.40
39957;DHT22;48483;44.640;7.494;2023-02-11T16:29:48;8.50;63.90